Latest Coastal Weather Observations for Browse Island

IDD60701

Issued at 4:31 pm CST Tuesday 22 August 2017 (issued every 10 minutes, with the page automatically refreshed every 10 minutes)

About coastal observations | Map of coastal stations | Coastal observations for NT | Marine services | Other Formats
Station Details ID: 200784 Name: BROWSE ISLAND Lat: -14.11 Lon: 123.55 Height: 3.7 m
Data from the previous 72 hours. | See also: Recent months at Browse Island
Date/Time
CST
Temp
°C
Wind Pressure Rain since
9am
mm
Weather Cloud Vis
km
Sea
Height
m
Swell
Dir  Spd
kts
Gust
kts
hPa Trend Height
m
Period
s
Dir
22/04:30pm 27.8 SE 5 6 1012.0 - - - - - - - - -
22/04:00pm 27.9 SE 5 6 1012.1 - - - - - - - - -
22/03:30pm 28.5 ESE 5 7 1012.6 - - - - - - - - -
22/03:00pm 27.9 SSE 5 6 1013.0 - - - - - - - - -
22/02:30pm 27.8 ESE 5 7 1013.4 - - - - - - - - -
22/02:00pm 27.8 SSE 5 6 1013.5 - - - - - - - - -
22/01:30pm 28.3 SSE 5 6 1013.8 - - - - - - - - -
22/01:00pm 27.9 S 5 6 1014.1 - - - - - - - - -
22/12:30pm 27.5 S 4 5 1014.2 - - - - - - - - -
22/12:00pm 27.4 SSW 4 5 1014.6 - - - - - - - - -
22/11:30am 27.6 SSW 4 5 1014.7 - - - - - - - - -
22/11:00am 26.9 SW 4 5 1014.7 - - - - - - - - -
22/10:30am 27.0 WSW 4 5 1014.5 - - - - - - - - -
22/10:00am 26.5 WSW 5 6 1014.2 - - - - - - - - -
22/09:30am 26.2 WSW 6 7 1013.8 - - - - - - - - -
22/09:00am 26.1 WSW 7 8 1013.6 - - - - - - - - -
22/08:30am 26.2 WSW 7 8 1013.3 - - - - - - - - -
22/08:00am 25.9 W 6 7 1013.1 - - - - - - - - -
22/07:30am 26.1 W 6 7 1013.1 - - - - - - - - -
22/07:00am 26.1 WNW 6 7 1012.9 - - - - - - - - -
22/06:30am 26.2 WNW 6 7 1012.6 - - - - - - - - -
22/06:00am 26.1 NW 5 6 1012.5 - - - - - - - - -
22/05:30am 26.2 NNW 5 6 1012.4 - - - - - - - - -
22/05:00am 26.3 NW 5 6 1012.3 - - - - - - - - -
22/04:30am 26.3 NNW 5 6 1012.3 - - - - - - - - -
22/04:00am 26.3 NNW 5 6 1012.3 - - - - - - - - -
22/03:30am 26.4 NNW 5 6 1012.4 - - - - - - - - -
22/03:00am 26.4 NNW 6 7 1012.6 - - - - - - - - -
22/02:30am 26.5 N 6 7 1012.7 - - - - - - - - -
22/02:00am 26.6 N 8 9 1012.8 - - - - - - - - -
22/01:30am 26.5 N 6 7 1013.0 - - - - - - - - -
22/01:00am 26.7 N 5 6 1013.2 - - - - - - - - -
22/12:30am 26.6 N 7 8 1013.2 - - - - - - - - -
22/12:00am 26.7 N 7 7 1013.1 - - - - - - - - -
 
Date/Time
CST
Temp
°C
Wind Pressure Rain since
9am
mm
Weather Cloud Vis
km
Sea
Height
m
Swell
Dir  Spd
kts
Gust
kts
hPa Trend Height
m
Period
s
Dir
21/11:30pm 26.7 N 7 8 1013.0 - - - - - - - - -
21/11:00pm 26.9 N 8 9 1013.0 - - - - - - - - -
21/10:30pm 27.0 N 8 9 1012.9 - - - - - - - - -
21/10:00pm 27.2 N 8 10 1012.9 - - - - - - - - -
21/09:30pm 27.3 N 9 10 1012.7 - - - - - - - - -
21/09:00pm 27.2 N 9 11 1012.4 - - - - - - - - -
21/08:30pm 27.2 N 8 11 1012.1 - - - - - - - - -
21/08:00pm 27.1 N 7 8 1011.7 - - - - - - - - -
21/07:30pm 26.9 NNE 7 8 1011.4 - - - - - - - - -
21/07:00pm 27.1 NNE 8 9 1011.2 - - - - - - - - -
21/06:30pm 27.5 NNE 5 6 1011.0 - - - - - - - - -
21/06:00pm 27.7 NNE 5 6 1010.8 - - - - - - - - -
21/05:30pm 28.1 NNE 5 5 1010.6 - - - - - - - - -
21/05:00pm 28.2 N 5 6 1010.4 - - - - - - - - -
21/04:30pm 28.6 N 5 7 1010.4 - - - - - - - - -
21/04:00pm 28.0 N 5 7 1010.6 - - - - - - - - -
21/03:30pm 27.7 N 6 7 1010.9 - - - - - - - - -
21/03:00pm 28.7 N 6 7 1011.2 - - - - - - - - -
21/02:30pm 27.8 N 6 7 1011.7 - - - - - - - - -
21/02:00pm 28.0 N 6 7 1012.1 - - - - - - - - -
21/01:30pm 28.1 NNE 5 8 1012.5 - - - - - - - - -
21/01:00pm 27.8 ENE 5 7 1012.7 - - - - - - - - -
21/12:30pm 28.2 ESE 5 7 1013.1 - - - - - - - - -
21/12:00pm 27.8 SSE 5 7 1013.5 - - - - - - - - -
21/11:30am 27.4 SSE 6 7 1013.7 - - - - - - - - -
21/11:00am 27.3 SSE 5 6 1013.7 - - - - - - - - -
21/10:30am 26.7 SSE 5 7 1013.7 - - - - - - - - -
21/10:00am 26.1 S 6 7 1013.5 - - - - - - - - -
21/09:30am 26.1 S 6 7 1013.1 - - - - - - - - -
21/09:00am 25.9 S 5 6 1012.9 - - - - - - - - -
21/08:30am 25.7 SSW 5 5 1012.7 - - - - - - - - -
21/08:00am 25.7 SW 6 6 1012.4 - - - - - - - - -
21/07:30am 25.7 SW 6 7 1012.0 - - - - - - - - -
21/07:00am 25.6 SW 5 6 1011.6 - - - - - - - - -
21/06:30am 25.6 CALM 0 0 1011.4 - - - - - - - - -
21/06:00am 25.6 CALM 0 0 1011.3 - - - - - - - - -
21/05:30am 25.7 CALM 0 0 1011.3 - - - - - - - - -
21/05:00am 25.7 SSW 3 4 1011.4 - - - - - - - - -
21/04:30am 26.0 SSW 1 4 1011.5 - - - - - - - - -
21/04:00am 26.1 SSW 5 6 1011.7 - - - - - - - - -
21/03:30am 26.1 SSW 5 6 1011.7 - - - - - - - - -
21/03:00am 25.9 SSW 4 5 1011.8 - - - - - - - - -
21/02:30am 26.1 SW 4 4 1011.8 - - - - - - - - -
21/02:00am 26.2 SW 5 6 1012.0 - - - - - - - - -
21/01:30am 26.2 SW 5 7 1012.3 - - - - - - - - -
21/01:00am 26.2 SW 4 5 1012.3 - - - - - - - - -
21/12:30am 26.3 SW 4 5 1012.4 - - - - - - - - -
21/12:00am 26.4 SW 5 6 1012.5 - - - - - - - - -
 
Date/Time
CST
Temp
°C
Wind Pressure Rain since
9am
mm
Weather Cloud Vis
km
Sea
Height
m
Swell
Dir  Spd
kts
Gust
kts
hPa Trend Height
m
Period
s
Dir
20/11:30pm 26.3 SW 4 5 1012.5 - - - - - - - - -
20/11:00pm 26.4 SW 4 5 1012.5 - - - - - - - - -
20/10:30pm 26.5 SW 4 5 1012.5 - - - - - - - - -
20/10:00pm 26.4 SW 5 6 1012.6 - - - - - - - - -
20/09:30pm 26.4 SW 6 7 1012.5 - - - - - - - - -
20/09:00pm 26.6 SW 6 7 1012.4 - - - - - - - - -
20/08:30pm 26.5 SW 6 7 1012.0 - - - - - - - - -
20/08:00pm 26.5 SW 4 5 1011.9 - - - - - - - - -
20/07:30pm 26.6 WSW 4 5 1011.7 - - - - - - - - -
20/07:00pm 26.7 SW 4 5 1011.4 - - - - - - - - -
20/06:30pm 26.8 SSW 6 8 1011.3 - - - - - - - - -
20/06:00pm 26.7 SSW 6 7 1011.3 - - - - - - - - -
20/05:30pm 26.9 S 7 9 1011.3 - - - - - - - - -
20/05:00pm 27.5 S 6 8 1011.3 - - - - - - - - -
20/04:30pm 26.9 S 7 9 1011.5 - - - - - - - - -
20/04:00pm 27.7 SSE 5 7 1011.6 - - - - - - - - -
20/03:30pm 27.1 SSE 6 8 1011.8 - - - - - - - - -
20/03:00pm 27.2 S 8 9 1012.3 - - - - - - - - -
20/02:30pm 26.9 S 11 13 1012.8 - - - - - - - - -
20/02:00pm 26.8 S 13 15 1013.3 - - - - - - - - -
20/01:30pm 26.8 S 11 14 1013.7 - - - - - - - - -
20/01:00pm 26.7 S 12 14 1014.1 - - - - - - - - -
20/12:30pm 26.8 S 13 15 1014.3 - - - - - - - - -
20/12:00pm 26.6 S 11 14 1014.6 - - - - - - - - -
20/11:30am 26.6 S 12 14 1014.8 - - - - - - - - -
20/11:00am 26.5 S 12 14 1015.0 - - - - - - - - -
20/10:30am 26.4 S 12 14 1014.9 - - - - - - - - -
20/10:00am 26.4 S 12 13 1014.8 - - - - - - - - -
20/09:30am 26.2 S 12 14 1014.7 - - - - - - - - -
20/09:00am 26.2 S 13 16 1014.3 - - - - - - - - -
20/08:30am 26.1 S 14 16 1014.1 - - - - - - - - -
20/08:00am 26.0 S 13 15 1013.9 - - - - - - - - -
20/07:30am 26.1 SSW 13 15 1013.6 - - - - - - - - -
20/07:00am 25.8 SSW 13 15 1013.3 - - - - - - - - -
20/06:30am 26.0 SSW 14 16 1013.0 - - - - - - - - -
20/06:00am 25.9 SSW 14 16 1012.9 - - - - - - - - -
20/05:30am 26.0 SW 14 15 1012.6 - - - - - - - - -
20/05:00am 26.2 SW 14 15 1012.6 - - - - - - - - -
20/04:30am 26.1 SSW 12 14 1012.9 - - - - - - - - -
20/04:00am 26.1 SW 10 11 1013.0 - - - - - - - - -
20/03:30am 25.9 SW 9 11 1013.2 - - - - - - - - -
20/03:00am 25.9 SW 8 9 1013.3 - - - - - - - - -
20/02:30am 25.9 SW 8 10 1013.5 - - - - - - - - -
20/02:00am 25.9 SW 8 9 1013.7 - - - - - - - - -
20/01:30am 26.1 WSW 8 9 1013.8 - - - - - - - - -
20/01:00am 26.4 WSW 7 9 1014.1 - - - - - - - - -
20/12:30am 26.3 W 7 8 1014.2 - - - - - - - - -
20/12:00am 26.4 WNW 6 7 1014.2 - - - - - - - - -
 
Date/Time
CST
Temp
°C
Wind Pressure Rain since
9am
mm
Weather Cloud Vis
km
Sea
Height
m
Swell
Dir  Spd
kts
Gust
kts
hPa Trend Height
m
Period
s
Dir
19/11:30pm 26.3 WNW 7 8 1014.1 - - - - - - - - -
19/11:00pm 26.4 WNW 8 8 1014.1 - - - - - - - - -
19/10:30pm 26.4 WNW 8 9 1014.0 - - - - - - - - -
19/10:00pm 26.5 NW 7 8 1013.9 - - - - - - - - -
19/09:30pm 26.4 NW 7 9 1013.7 - - - - - - - - -
19/09:00pm 26.5 NW 7 8 1013.6 - - - - - - - - -
19/08:30pm 26.6 NW 5 6 1013.4 - - - - - - - - -
19/08:00pm 26.5 CALM 0 0 1013.2 - - - - - - - - -
19/07:30pm 26.5 NNW 3 4 1013.0 - - - - - - - - -
19/07:00pm 26.9 NW 3 5 1012.8 - - - - - - - - -
19/06:30pm 27.1 WNW 4 5 1012.6 - - - - - - - - -

Other Formats:

Comma delimited format used in spreadsheet applications
http://www.bom.gov.au/fwo/IDD60701/IDD60701.94103.axf

JavaScript Object Notation format (JSON) in row-major order
http://www.bom.gov.au/fwo/IDD60701/IDD60701.94103.json